Downton, United Kingdom
Current Conditions -  °F | °C
As of 2:50 AM on Monday 22 Dec 2014 (Local Time) from EGDM Reporting Station
Overcast Overcast  
Wind Chill: 54°   Ceiling: 900
Heat Index: 54°   Visibility: 6mi
Dew Point: 50°   Wind: 20mph
Humidity: 88%   Direction: 230°SW
Pressure: 30.15"   Gusts: NA
Location:  51°N, 1.73°W
Report Text: EGDM 220250Z AUTO 23017KT 9999 OVC009/// 12/10 Q1021
Loading
Personal Weather Stations






























Interactive Weather Map New forecast layout! Learn more

10-Day Weather Forecast

Advertisements
Track Severe Weather on mobile